sensor_id;sensor_type;location;lat;lon;timestamp;temperature;humidity
4090;DHT22;2059;48.538;12.146;2023-04-02T00:02:33;9.30;99.90
4090;DHT22;2059;48.538;12.146;2023-04-02T00:07:38;9.50;99.90
4090;DHT22;2059;48.538;12.146;2023-04-02T00:12:58;9.10;99.90
4090;DHT22;2059;48.538;12.146;2023-04-02T00:18:02;9.40;99.90
4090;DHT22;2059;48.538;12.146;2023-04-02T00:23:08;9.40;99.90
4090;DHT22;2059;48.538;12.146;2023-04-02T00:28:14;9.50;99.90
4090;DHT22;2059;48.538;12.146;2023-04-02T00:33:18;9.40;99.90
4090;DHT22;2059;48.538;12.146;2023-04-02T00:38:25;9.40;99.90
4090;DHT22;2059;48.538;12.146;2023-04-02T00:43:30;9.40;99.90
4090;DHT22;2059;48.538;12.146;2023-04-02T00:48:40;9.30;99.90
4090;DHT22;2059;48.538;12.146;2023-04-02T00:53:46;9.60;99.90
4090;DHT22;2059;48.538;12.146;2023-04-02T00:58:51;9.20;99.90
4090;DHT22;2059;48.538;12.146;2023-04-02T01:03:56;9.30;99.90
4090;DHT22;2059;48.538;12.146;2023-04-02T01:09:14;9.50;99.90
4090;DHT22;2059;48.538;12.146;2023-04-02T01:14:34;9.50;99.90
4090;DHT22;2059;48.538;12.146;2023-04-02T01:19:54;9.50;99.90
4090;DHT22;2059;48.538;12.146;2023-04-02T01:25:03;9.50;99.90
4090;DHT22;2059;48.538;12.146;2023-04-02T01:30:08;9.30;99.90
4090;DHT22;2059;48.538;12.146;2023-04-02T01:35:12;9.50;99.90
4090;DHT22;2059;48.538;12.146;2023-04-02T01:40:26;9.20;99.90
4090;DHT22;2059;48.538;12.146;2023-04-02T01:45:32;9.10;99.90
4090;DHT22;2059;48.538;12.146;2023-04-02T01:50:37;9.30;99.90
4090;DHT22;2059;48.538;12.146;2023-04-02T01:55:42;9.30;99.90
4090;DHT22;2059;48.538;12.146;2023-04-02T02:00:48;9.30;99.90
4090;DHT22;2059;48.538;12.146;2023-04-02T02:05:51;9.30;99.90
4090;DHT22;2059;48.538;12.146;2023-04-02T02:10:53;9.20;99.90
4090;DHT22;2059;48.538;12.146;2023-04-02T02:15:58;9.20;99.90
4090;DHT22;2059;48.538;12.146;2023-04-02T02:21:04;9.20;99.90
4090;DHT22;2059;48.538;12.146;2023-04-02T02:26:10;9.30;99.90
4090;DHT22;2059;48.538;12.146;2023-04-02T02:31:18;9.00;99.90
4090;DHT22;2059;48.538;12.146;2023-04-02T02:36:23;9.00;99.90
4090;DHT22;2059;48.538;12.146;2023-04-02T02:41:30;8.90;99.90
4090;DHT22;2059;48.538;12.146;2023-04-02T02:46:38;9.00;99.90
4090;DHT22;2059;48.538;12.146;2023-04-02T02:51:44;8.80;99.90
4090;DHT22;2059;48.538;12.146;2023-04-02T02:56:51;9.00;99.90
4090;DHT22;2059;48.538;12.146;2023-04-02T03:01:56;9.00;99.90
4090;DHT22;2059;48.538;12.146;2023-04-02T03:06:58;9.00;99.90
4090;DHT22;2059;48.538;12.146;2023-04-02T03:12:05;9.10;99.90
4090;DHT22;2059;48.538;12.146;2023-04-02T03:17:13;9.10;99.90
4090;DHT22;2059;48.538;12.146;2023-04-02T03:22:22;9.20;99.90
4090;DHT22;2059;48.538;12.146;2023-04-02T03:27:31;9.10;99.90
4090;DHT22;2059;48.538;12.146;2023-04-02T03:32:37;9.30;99.90
4090;DHT22;2059;48.538;12.146;2023-04-02T03:37:44;9.20;99.90
4090;DHT22;2059;48.538;12.146;2023-04-02T03:42:51;9.30;99.90
4090;DHT22;2059;48.538;12.146;2023-04-02T03:47:58;9.10;99.90
4090;DHT22;2059;48.538;12.146;2023-04-02T03:53:02;9.40;99.90
4090;DHT22;2059;48.538;12.146;2023-04-02T03:58:10;9.50;99.90
4090;DHT22;2059;48.538;12.146;2023-04-02T04:03:19;9.30;99.90
4090;DHT22;2059;48.538;12.146;2023-04-02T04:08:24;9.20;99.90
4090;DHT22;2059;48.538;12.146;2023-04-02T04:13:33;9.20;99.90
4090;DHT22;2059;48.538;12.146;2023-04-02T04:18:42;9.50;99.90
4090;DHT22;2059;48.538;12.146;2023-04-02T04:23:49;9.30;99.90
4090;DHT22;2059;48.538;12.146;2023-04-02T04:28:57;9.40;99.90
4090;DHT22;2059;48.538;12.146;2023-04-02T04:34:10;9.20;99.90
4090;DHT22;2059;48.538;12.146;2023-04-02T04:39:16;9.40;99.90
4090;DHT22;2059;48.538;12.146;2023-04-02T04:44:22;9.40;99.90
4090;DHT22;2059;48.538;12.146;2023-04-02T04:49:30;9.10;99.90
4090;DHT22;2059;48.538;12.146;2023-04-02T04:54:36;9.00;99.90
4090;DHT22;2059;48.538;12.146;2023-04-02T04:59:42;9.10;99.90
4090;DHT22;2059;48.538;12.146;2023-04-02T05:04:49;9.00;99.90
4090;DHT22;2059;48.538;12.146;2023-04-02T05:09:55;9.00;99.90
4090;DHT22;2059;48.538;12.146;2023-04-02T05:15:01;9.30;99.90
4090;DHT22;2059;48.538;12.146;2023-04-02T05:20:12;9.20;99.90
4090;DHT22;2059;48.538;12.146;2023-04-02T05:25:20;9.30;99.90
4090;DHT22;2059;48.538;12.146;2023-04-02T05:30:39;9.20;99.90
4090;DHT22;2059;48.538;12.146;2023-04-02T05:35:52;8.70;99.90
4090;DHT22;2059;48.538;12.146;2023-04-02T05:40:59;9.00;99.90
4090;DHT22;2059;48.538;12.146;2023-04-02T05:46:06;9.30;99.90
4090;DHT22;2059;48.538;12.146;2023-04-02T05:51:19;9.40;99.90
4090;DHT22;2059;48.538;12.146;2023-04-02T05:56:23;9.40;99.90
4090;DHT22;2059;48.538;12.146;2023-04-02T06:01:34;9.40;99.90
4090;DHT22;2059;48.538;12.146;2023-04-02T06:06:46;9.50;99.90
4090;DHT22;2059;48.538;12.146;2023-04-02T06:11:56;9.30;99.90
4090;DHT22;2059;48.538;12.146;2023-04-02T06:17:00;9.20;99.90
4090;DHT22;2059;48.538;12.146;2023-04-02T06:22:10;9.20;99.90
4090;DHT22;2059;48.538;12.146;2023-04-02T06:27:18;9.20;99.90
4090;DHT22;2059;48.538;12.146;2023-04-02T06:32:22;9.20;99.90
4090;DHT22;2059;48.538;12.146;2023-04-02T06:37:30;9.10;99.90
4090;DHT22;2059;48.538;12.146;2023-04-02T06:42:34;9.20;99.90
4090;DHT22;2059;48.538;12.146;2023-04-02T06:47:39;8.80;99.90
4090;DHT22;2059;48.538;12.146;2023-04-02T06:52:45;8.70;99.90
4090;DHT22;2059;48.538;12.146;2023-04-02T06:57:48;8.90;99.90
4090;DHT22;2059;48.538;12.146;2023-04-02T07:02:51;9.00;99.90
4090;DHT22;2059;48.538;12.146;2023-04-02T07:07:54;9.10;99.90
4090;DHT22;2059;48.538;12.146;2023-04-02T07:12:56;9.40;99.90
4090;DHT22;2059;48.538;12.146;2023-04-02T07:17:58;9.30;99.90
4090;DHT22;2059;48.538;12.146;2023-04-02T07:23:01;9.70;99.90
4090;DHT22;2059;48.538;12.146;2023-04-02T07:28:03;9.70;99.90
4090;DHT22;2059;48.538;12.146;2023-04-02T07:33:05;9.70;99.90
4090;DHT22;2059;48.538;12.146;2023-04-02T07:38:09;9.60;99.90
4090;DHT22;2059;48.538;12.146;2023-04-02T07:43:11;9.40;99.90
4090;DHT22;2059;48.538;12.146;2023-04-02T07:48:13;9.50;99.90
4090;DHT22;2059;48.538;12.146;2023-04-02T07:53:26;9.20;99.90
4090;DHT22;2059;48.538;12.146;2023-04-02T07:58:30;9.30;99.90
4090;DHT22;2059;48.538;12.146;2023-04-02T08:03:32;9.60;99.90
4090;DHT22;2059;48.538;12.146;2023-04-02T08:08:35;9.30;99.90
4090;DHT22;2059;48.538;12.146;2023-04-02T08:13:37;9.30;99.90
4090;DHT22;2059;48.538;12.146;2023-04-02T08:18:39;9.40;99.90
4090;DHT22;2059;48.538;12.146;2023-04-02T08:23:42;9.80;99.90
4090;DHT22;2059;48.538;12.146;2023-04-02T08:28:44;9.90;99.90
4090;DHT22;2059;48.538;12.146;2023-04-02T08:33:46;10.10;99.90
4090;DHT22;2059;48.538;12.146;2023-04-02T08:38:49;9.80;99.90
4090;DHT22;2059;48.538;12.146;2023-04-02T08:43:59;9.50;99.90
4090;DHT22;2059;48.538;12.146;2023-04-02T08:49:12;9.40;99.90
4090;DHT22;2059;48.538;12.146;2023-04-02T08:54:23;9.70;99.90
4090;DHT22;2059;48.538;12.146;2023-04-02T08:59:30;9.90;99.90
4090;DHT22;2059;48.538;12.146;2023-04-02T09:04:33;9.90;99.90
4090;DHT22;2059;48.538;12.146;2023-04-02T09:09:37;9.60;99.90
4090;DHT22;2059;48.538;12.146;2023-04-02T09:14:42;9.90;99.90
4090;DHT22;2059;48.538;12.146;2023-04-02T09:19:49;10.10;99.90
4090;DHT22;2059;48.538;12.146;2023-04-02T09:24:55;10.30;99.90
4090;DHT22;2059;48.538;12.146;2023-04-02T09:29:59;10.60;99.90
4090;DHT22;2059;48.538;12.146;2023-04-02T09:35:12;10.40;99.90
4090;DHT22;2059;48.538;12.146;2023-04-02T09:40:22;10.50;99.90
4090;DHT22;2059;48.538;12.146;2023-04-02T09:45:26;10.30;99.90
4090;DHT22;2059;48.538;12.146;2023-04-02T09:50:30;10.10;99.90
4090;DHT22;2059;48.538;12.146;2023-04-02T09:55:33;10.70;99.90
4090;DHT22;2059;48.538;12.146;2023-04-02T10:00:36;10.90;99.90
4090;DHT22;2059;48.538;12.146;2023-04-02T10:05:37;10.80;99.90
4090;DHT22;2059;48.538;12.146;2023-04-02T10:10:43;10.80;99.90
4090;DHT22;2059;48.538;12.146;2023-04-02T10:15:50;10.90;99.90
4090;DHT22;2059;48.538;12.146;2023-04-02T10:20:54;10.80;99.90
4090;DHT22;2059;48.538;12.146;2023-04-02T10:26:07;10.70;99.90
4090;DHT22;2059;48.538;12.146;2023-04-02T10:31:18;10.40;99.90
4090;DHT22;2059;48.538;12.146;2023-04-02T10:36:27;10.50;99.90
4090;DHT22;2059;48.538;12.146;2023-04-02T10:41:43;10.50;99.90
4090;DHT22;2059;48.538;12.146;2023-04-02T10:46:58;10.60;99.90
4090;DHT22;2059;48.538;12.146;2023-04-02T10:52:07;10.40;99.90
4090;DHT22;2059;48.538;12.146;2023-04-02T10:57:22;11.00;99.90
4090;DHT22;2059;48.538;12.146;2023-04-02T11:02:31;11.70;99.90
4090;DHT22;2059;48.538;12.146;2023-04-02T11:07:45;12.50;99.90
4090;DHT22;2059;48.538;12.146;2023-04-02T11:12:56;12.10;99.90
4090;DHT22;2059;48.538;12.146;2023-04-02T11:17:59;11.70;99.90
4090;DHT22;2059;48.538;12.146;2023-04-02T11:23:09;10.90;99.90
4090;DHT22;2059;48.538;12.146;2023-04-02T11:28:24;11.10;99.90
4090;DHT22;2059;48.538;12.146;2023-04-02T11:33:40;11.40;99.90
4090;DHT22;2059;48.538;12.146;2023-04-02T11:38:50;11.40;99.90
4090;DHT22;2059;48.538;12.146;2023-04-02T11:44:00;11.00;99.90
4090;DHT22;2059;48.538;12.146;2023-04-02T11:49:34;11.20;99.90
4090;DHT22;2059;48.538;12.146;2023-04-02T11:54:37;11.30;99.90
4090;DHT22;2059;48.538;12.146;2023-04-02T11:59:45;12.40;99.90
4090;DHT22;2059;48.538;12.146;2023-04-02T12:05:08;13.00;99.90
4090;DHT22;2059;48.538;12.146;2023-04-02T12:10:20;12.30;99.90
4090;DHT22;2059;48.538;12.146;2023-04-02T12:15:35;12.00;99.90
4090;DHT22;2059;48.538;12.146;2023-04-02T12:20:38;12.20;99.90
4090;DHT22;2059;48.538;12.146;2023-04-02T12:25:44;11.80;99.90
4090;DHT22;2059;48.538;12.146;2023-04-02T12:30:50;12.20;99.90
4090;DHT22;2059;48.538;12.146;2023-04-02T12:36:03;12.30;99.90
4090;DHT22;2059;48.538;12.146;2023-04-02T12:41:19;12.00;99.90
4090;DHT22;2059;48.538;12.146;2023-04-02T12:46:25;12.20;99.90
4090;DHT22;2059;48.538;12.146;2023-04-02T12:51:27;12.80;99.90
4090;DHT22;2059;48.538;12.146;2023-04-02T12:56:29;12.30;99.90
4090;DHT22;2059;48.538;12.146;2023-04-02T13:01:32;11.90;99.90
4090;DHT22;2059;48.538;12.146;2023-04-02T13:06:35;12.00;99.90
4090;DHT22;2059;48.538;12.146;2023-04-02T13:11:39;12.20;99.90
4090;DHT22;2059;48.538;12.146;2023-04-02T13:16:43;12.00;99.90
4090;DHT22;2059;48.538;12.146;2023-04-02T13:21:45;11.90;99.90
4090;DHT22;2059;48.538;12.146;2023-04-02T13:26:47;12.30;99.90
4090;DHT22;2059;48.538;12.146;2023-04-02T13:31:52;12.50;99.90
4090;DHT22;2059;48.538;12.146;2023-04-02T13:36:53;11.90;99.90
4090;DHT22;2059;48.538;12.146;2023-04-02T13:41:57;11.70;99.90
4090;DHT22;2059;48.538;12.146;2023-04-02T13:47:01;12.00;99.90
4090;DHT22;2059;48.538;12.146;2023-04-02T13:52:03;11.50;99.90
4090;DHT22;2059;48.538;12.146;2023-04-02T13:57:05;11.30;99.90
4090;DHT22;2059;48.538;12.146;2023-04-02T14:02:10;11.90;99.90
4090;DHT22;2059;48.538;12.146;2023-04-02T14:07:21;12.40;99.90
4090;DHT22;2059;48.538;12.146;2023-04-02T14:12:34;12.70;99.90
4090;DHT22;2059;48.538;12.146;2023-04-02T14:17:55;12.70;99.90
4090;DHT22;2059;48.538;12.146;2023-04-02T14:23:24;12.40;99.90
4090;DHT22;2059;48.538;12.146;2023-04-02T14:28:36;11.60;99.90
4090;DHT22;2059;48.538;12.146;2023-04-02T14:33:50;11.40;99.90
4090;DHT22;2059;48.538;12.146;2023-04-02T14:38:56;11.10;99.90
4090;DHT22;2059;48.538;12.146;2023-04-02T14:44:00;10.90;99.90
4090;DHT22;2059;48.538;12.146;2023-04-02T14:49:16;10.70;99.90
4090;DHT22;2059;48.538;12.146;2023-04-02T14:54:28;10.20;99.90
4090;DHT22;2059;48.538;12.146;2023-04-02T14:59:33;10.10;99.90
4090;DHT22;2059;48.538;12.146;2023-04-02T15:04:40;10.30;99.90
4090;DHT22;2059;48.538;12.146;2023-04-02T15:09:46;10.60;99.90
4090;DHT22;2059;48.538;12.146;2023-04-02T15:14:53;10.10;99.90
4090;DHT22;2059;48.538;12.146;2023-04-02T15:20:05;10.20;99.90
4090;DHT22;2059;48.538;12.146;2023-04-02T15:25:20;10.10;99.90
4090;DHT22;2059;48.538;12.146;2023-04-02T15:30:26;10.10;99.90
4090;DHT22;2059;48.538;12.146;2023-04-02T15:35:35;9.70;99.90
4090;DHT22;2059;48.538;12.146;2023-04-02T15:40:45;9.40;99.90
4090;DHT22;2059;48.538;12.146;2023-04-02T15:46:10;9.30;99.90
4090;DHT22;2059;48.538;12.146;2023-04-02T15:51:23;8.90;99.90
4090;DHT22;2059;48.538;12.146;2023-04-02T15:56:33;8.70;99.90
4090;DHT22;2059;48.538;12.146;2023-04-02T16:01:43;8.70;99.90
4090;DHT22;2059;48.538;12.146;2023-04-02T16:07:00;8.60;99.90
4090;DHT22;2059;48.538;12.146;2023-04-02T16:12:13;8.80;99.90
4090;DHT22;2059;48.538;12.146;2023-04-02T16:17:18;8.60;99.90
4090;DHT22;2059;48.538;12.146;2023-04-02T16:22:27;8.50;99.90
4090;DHT22;2059;48.538;12.146;2023-04-02T16:27:33;8.50;99.90
4090;DHT22;2059;48.538;12.146;2023-04-02T16:32:45;8.50;99.90
4090;DHT22;2059;48.538;12.146;2023-04-02T16:37:55;8.10;99.90
4090;DHT22;2059;48.538;12.146;2023-04-02T16:43:06;8.20;99.90
4090;DHT22;2059;48.538;12.146;2023-04-02T16:48:18;7.90;99.90
4090;DHT22;2059;48.538;12.146;2023-04-02T16:53:30;7.90;99.90
4090;DHT22;2059;48.538;12.146;2023-04-02T16:58:41;8.20;99.90
4090;DHT22;2059;48.538;12.146;2023-04-02T17:04:02;8.30;99.90
4090;DHT22;2059;48.538;12.146;2023-04-02T17:09:14;8.20;99.90
4090;DHT22;2059;48.538;12.146;2023-04-02T17:14:30;8.20;99.90
4090;DHT22;2059;48.538;12.146;2023-04-02T17:19:35;8.20;99.90
4090;DHT22;2059;48.538;12.146;2023-04-02T17:24:41;7.90;99.90
4090;DHT22;2059;48.538;12.146;2023-04-02T17:29:47;7.60;99.90
4090;DHT22;2059;48.538;12.146;2023-04-02T17:34:49;7.70;99.90
4090;DHT22;2059;48.538;12.146;2023-04-02T17:40:00;7.10;99.90
4090;DHT22;2059;48.538;12.146;2023-04-02T17:45:12;6.70;99.90
4090;DHT22;2059;48.538;12.146;2023-04-02T17:50:43;6.80;99.90
4090;DHT22;2059;48.538;12.146;2023-04-02T17:55:56;6.70;99.90
4090;DHT22;2059;48.538;12.146;2023-04-02T18:01:05;6.50;99.90
4090;DHT22;2059;48.538;12.146;2023-04-02T18:06:13;6.50;99.60
4090;DHT22;2059;48.538;12.146;2023-04-02T18:11:25;6.30;99.30
4090;DHT22;2059;48.538;12.146;2023-04-02T18:16:37;6.40;99.30
4090;DHT22;2059;48.538;12.146;2023-04-02T18:21:52;6.30;99.00
4090;DHT22;2059;48.538;12.146;2023-04-02T18:27:06;6.10;98.80
4090;DHT22;2059;48.538;12.146;2023-04-02T18:32:27;6.10;99.10
4090;DHT22;2059;48.538;12.146;2023-04-02T18:37:36;6.00;99.60
4090;DHT22;2059;48.538;12.146;2023-04-02T18:42:47;6.00;98.80
4090;DHT22;2059;48.538;12.146;2023-04-02T18:47:59;5.80;98.90
4090;DHT22;2059;48.538;12.146;2023-04-02T18:53:10;6.00;99.10
4090;DHT22;2059;48.538;12.146;2023-04-02T18:58:21;5.80;99.30
4090;DHT22;2059;48.538;12.146;2023-04-02T19:03:29;5.70;99.60
4090;DHT22;2059;48.538;12.146;2023-04-02T19:08:35;5.70;99.00
4090;DHT22;2059;48.538;12.146;2023-04-02T19:13:40;5.50;99.30
4090;DHT22;2059;48.538;12.146;2023-04-02T19:18:52;5.60;99.10
4090;DHT22;2059;48.538;12.146;2023-04-02T19:24:11;5.70;99.40
4090;DHT22;2059;48.538;12.146;2023-04-02T19:29:27;5.70;99.20
4090;DHT22;2059;48.538;12.146;2023-04-02T19:34:37;5.60;99.30
4090;DHT22;2059;48.538;12.146;2023-04-02T19:39:50;5.50;99.60
4090;DHT22;2059;48.538;12.146;2023-04-02T19:44:55;5.60;99.60
4090;DHT22;2059;48.538;12.146;2023-04-02T19:49:56;5.50;99.60
4090;DHT22;2059;48.538;12.146;2023-04-02T19:54:58;5.60;99.60
4090;DHT22;2059;48.538;12.146;2023-04-02T20:00:02;5.80;99.40
4090;DHT22;2059;48.538;12.146;2023-04-02T20:05:05;5.80;99.50
4090;DHT22;2059;48.538;12.146;2023-04-02T20:10:08;5.50;99.30
4090;DHT22;2059;48.538;12.146;2023-04-02T20:15:12;5.60;99.40
4090;DHT22;2059;48.538;12.146;2023-04-02T20:20:14;5.70;99.50
4090;DHT22;2059;48.538;12.146;2023-04-02T20:25:17;5.80;99.10
4090;DHT22;2059;48.538;12.146;2023-04-02T20:30:20;5.60;99.20
4090;DHT22;2059;48.538;12.146;2023-04-02T20:35:22;5.40;99.20
4090;DHT22;2059;48.538;12.146;2023-04-02T20:40:25;5.40;99.60
4090;DHT22;2059;48.538;12.146;2023-04-02T20:45:28;5.50;99.70
4090;DHT22;2059;48.538;12.146;2023-04-02T20:50:30;5.50;99.10
4090;DHT22;2059;48.538;12.146;2023-04-02T20:55:32;5.30;99.30
4090;DHT22;2059;48.538;12.146;2023-04-02T21:00:35;5.30;99.20
4090;DHT22;2059;48.538;12.146;2023-04-02T21:05:41;5.50;99.40
4090;DHT22;2059;48.538;12.146;2023-04-02T21:10:44;5.50;98.90
4090;DHT22;2059;48.538;12.146;2023-04-02T21:15:47;5.60;98.70
4090;DHT22;2059;48.538;12.146;2023-04-02T21:20:55;5.40;99.00
4090;DHT22;2059;48.538;12.146;2023-04-02T21:25:58;5.60;98.80
4090;DHT22;2059;48.538;12.146;2023-04-02T21:31:03;5.70;98.80
4090;DHT22;2059;48.538;12.146;2023-04-02T21:36:07;5.80;98.90
4090;DHT22;2059;48.538;12.146;2023-04-02T21:41:11;5.60;98.70
4090;DHT22;2059;48.538;12.146;2023-04-02T21:46:15;5.60;98.50
4090;DHT22;2059;48.538;12.146;2023-04-02T21:51:19;5.60;98.40
4090;DHT22;2059;48.538;12.146;2023-04-02T21:56:23;5.80;97.90
4090;DHT22;2059;48.538;12.146;2023-04-02T22:01:29;5.70;98.30
4090;DHT22;2059;48.538;12.146;2023-04-02T22:06:34;5.70;98.00
4090;DHT22;2059;48.538;12.146;2023-04-02T22:11:38;5.80;97.40
4090;DHT22;2059;48.538;12.146;2023-04-02T22:16:42;5.60;97.80
4090;DHT22;2059;48.538;12.146;2023-04-02T22:21:44;5.70;97.70
4090;DHT22;2059;48.538;12.146;2023-04-02T22:26:46;5.70;97.90
4090;DHT22;2059;48.538;12.146;2023-04-02T22:31:50;5.90;97.50
4090;DHT22;2059;48.538;12.146;2023-04-02T22:36:51;5.90;97.50
4090;DHT22;2059;48.538;12.146;2023-04-02T22:41:53;6.10;97.40
4090;DHT22;2059;48.538;12.146;2023-04-02T22:46:56;5.90;97.50
4090;DHT22;2059;48.538;12.146;2023-04-02T22:51:58;6.00;97.60
4090;DHT22;2059;48.538;12.146;2023-04-02T22:57:00;6.10;97.20
4090;DHT22;2059;48.538;12.146;2023-04-02T23:02:03;6.10;96.90
4090;DHT22;2059;48.538;12.146;2023-04-02T23:07:05;6.10;97.00
4090;DHT22;2059;48.538;12.146;2023-04-02T23:12:07;6.10;97.10
4090;DHT22;2059;48.538;12.146;2023-04-02T23:17:10;6.20;96.60
4090;DHT22;2059;48.538;12.146;2023-04-02T23:22:12;5.90;97.00
4090;DHT22;2059;48.538;12.146;2023-04-02T23:27:14;6.00;97.00
4090;DHT22;2059;48.538;12.146;2023-04-02T23:32:17;5.70;97.70
4090;DHT22;2059;48.538;12.146;2023-04-02T23:37:20;6.00;97.40
4090;DHT22;2059;48.538;12.146;2023-04-02T23:42:22;5.90;97.60
4090;DHT22;2059;48.538;12.146;2023-04-02T23:47:25;6.00;97.00
4090;DHT22;2059;48.538;12.146;2023-04-02T23:52:26;6.10;97.10
4090;DHT22;2059;48.538;12.146;2023-04-02T23:57:28;6.20;96.80
